Time;durP1;ratioP1;P1;durP2;ratioP2;P2;SDS_P1;SDS_P2;PMS_P1;PMS_P2;Temp;Humidity;BMP_temperature;BMP_pressure;BME280_temperature;BME280_humidity;BME280_pressure;Samples;Min_cycle;Max_cycle;Signal;HPM_P1;HPM_P2
2022/08/24 00:00:37;;;;;;;3.05;1.52;;;;;;;26.61;47.74;100967.56;5073252;28;20476;-75
2022/08/24 00:03:06;;;;;;;2.35;1.83;;;;;;;26.61;47.91;100959.44;5072844;28;20064;-75
2022/08/24 00:05:33;;;;;;;2.13;1.58;;;;;;;26.60;47.88;100960.47;5073674;28;20396;-74
2022/08/24 00:08:01;;;;;;;3.30;1.60;;;;;;;26.61;47.74;100973.00;5073924;28;20045;-74
2022/08/24 00:10:29;;;;;;;2.40;1.65;;;;;;;26.60;47.72;100971.31;5073829;28;20365;-74
2022/08/24 00:12:57;;;;;;;5.03;1.75;;;;;;;26.61;47.82;100969.44;5073258;28;20476;-74
2022/08/24 00:15:24;;;;;;;3.22;2.08;;;;;;;26.61;47.86;100972.16;5073362;28;20456;-74
2022/08/24 00:17:52;;;;;;;3.38;1.55;;;;;;;26.61;47.86;100969.44;5072931;28;20488;-74
2022/08/24 00:20:19;;;;;;;3.88;1.90;;;;;;;26.61;47.88;100966.72;5072210;28;20052;-74
2022/08/24 00:22:46;;;;;;;4.32;1.90;;;;;;;26.59;47.97;100966.91;5076838;28;20045;-74
2022/08/24 00:25:18;;;;;;;3.92;2.05;;;;;;;26.60;47.82;100968.59;5076926;28;20476;-75
2022/08/24 00:27:46;;;;;;;2.70;1.83;;;;;;;26.61;47.95;100964.88;5077067;28;20051;-75
2022/08/24 00:30:16;;;;;;;2.33;1.40;;;;;;;26.62;47.83;100963.03;5075618;28;20052;-74
2022/08/24 00:32:46;;;;;;;2.47;1.73;;;;;;;26.61;47.98;100964.88;5076902;28;20495;-74
2022/08/24 00:35:17;;;;;;;2.00;1.55;;;;;;;26.62;47.74;100965.75;5076670;28;20052;-75
2022/08/24 00:37:46;;;;;;;1.95;1.30;;;;;;;26.61;47.93;100962.16;5075555;28;20056;-74
2022/08/24 00:40:21;;;;;;;2.88;1.73;;;;;;;26.61;47.96;100966.72;5075748;28;20075;-74
2022/08/24 00:42:49;;;;;;;2.60;1.60;;;;;;;26.62;47.90;100965.75;5076967;28;20074;-74
2022/08/24 00:45:18;;;;;;;2.58;1.52;;;;;;;26.62;48.11;100966.56;5077114;28;20088;-74
2022/08/24 00:47:50;;;;;;;2.95;1.70;;;;;;;26.60;48.02;100960.47;5075466;28;20057;-74
2022/08/24 00:50:28;;;;;;;3.08;1.98;;;;;;;26.62;48.13;100963.03;5075250;28;20048;-74
2022/08/24 00:53:00;;;;;;;2.17;1.77;;;;;;;26.62;48.21;100963.88;5075007;28;20052;-75
2022/08/24 00:55:33;;;;;;;3.20;1.63;;;;;;;26.61;48.24;100962.16;5077454;28;20491;-74
2022/08/24 00:58:06;;;;;;;2.40;1.73;;;;;;;26.61;48.29;100954.00;5075515;28;20052;-74
2022/08/24 01:00:53;;;;;;;2.42;1.60;;;;;;;26.62;48.32;100960.31;5075708;28;20052;-75
2022/08/24 01:03:21;;;;;;;2.25;1.65;;;;;;;26.61;48.42;100954.00;5076156;28;20063;-75
2022/08/24 01:05:49;;;;;;;2.53;1.80;;;;;;;26.61;48.57;100959.44;5076235;28;20133;-75
2022/08/24 01:08:16;;;;;;;6.20;2.00;;;;;;;26.61;48.59;100961.31;5075972;28;20048;-75
2022/08/24 01:10:49;;;;;;;2.25;1.70;;;;;;;26.61;48.66;100970.28;5075876;28;20055;-74
2022/08/24 01:13:17;;;;;;;2.83;1.88;;;;;;;26.61;48.72;100967.56;5075277;28;20048;-75
2022/08/24 01:15:48;;;;;;;2.70;1.83;;;;;;;26.61;48.69;100961.31;5075205;28;20052;-75
2022/08/24 01:21:37;;;;;;;2.38;1.80;;;;;;;26.60;48.67;100963.19;5034236;28;20056;-75
2022/08/24 01:24:10;;;;;;;3.22;1.80;;;;;;;26.60;48.83;100965.88;5016843;28;20053;-75
2022/08/24 01:26:44;;;;;;;2.55;1.70;;;;;;;26.61;48.70;100972.16;5017535;28;20424;-75
2022/08/24 01:29:17;;;;;;;2.58;1.60;;;;;;;26.61;49.01;100966.72;5034604;28;20421;-75
2022/08/24 01:31:45;;;;;;;3.33;1.60;;;;;;;26.60;48.69;100974.03;5034102;28;20522;-75
2022/08/24 01:34:13;;;;;;;4.45;1.67;;;;;;;26.58;48.89;100970.66;5033024;28;20049;-75
2022/08/24 01:36:45;;;;;;;2.63;1.90;;;;;;;26.60;48.76;100974.03;5016973;28;20069;-74
2022/08/24 01:39:25;;;;;;;2.55;1.55;;;;;;;26.59;48.75;100975.06;5016317;28;20057;-75
2022/08/24 01:41:52;;;;;;;2.70;1.83;;;;;;;26.59;48.78;100977.78;5032801;28;20056;-75
2022/08/24 01:44:22;;;;;;;2.25;1.48;;;;;;;26.60;48.84;100967.75;5016263;28;20052;-75
2022/08/24 01:46:52;;;;;;;5.45;2.00;;;;;;;26.59;48.61;100969.63;5016528;28;20054;-75
2022/08/24 01:49:26;;;;;;;3.33;1.85;;;;;;;26.57;48.59;100965.41;5032987;28;20448;-75
2022/08/24 01:51:55;;;;;;;4.53;1.83;;;;;;;26.58;48.67;100973.38;5016319;28;20054;-75
2022/08/24 01:54:24;;;;;;;2.53;1.80;;;;;;;26.58;48.82;100972.53;5017839;28;20064;-75
2022/08/24 01:56:52;;;;;;;3.03;1.77;;;;;;;26.59;48.68;100979.66;5073918;28;20400;-75
2022/08/24 01:59:21;;;;;;;2.63;1.77;;;;;;;26.57;48.90;100977.09;5072962;28;20056;-75
2022/08/24 02:01:53;;;;;;;2.00;1.60;;;;;;;26.59;48.75;100980.50;5073957;28;20053;-74
2022/08/24 02:04:21;;;;;;;4.25;2.45;;;;;;;26.57;48.90;100973.53;5073539;28;20507;-75
2022/08/24 02:06:48;;;;;;;2.25;1.60;;;;;;;26.57;48.86;100974.38;5073553;28;20074;-75
2022/08/24 02:09:16;;;;;;;2.80;1.95;;;;;;;26.56;48.81;100980.84;5074733;28;20048;-75
2022/08/24 02:11:46;;;;;;;3.20;1.88;;;;;;;26.58;48.89;100984.25;5073365;28;20071;-75
2022/08/24 02:14:13;;;;;;;2.65;1.65;;;;;;;26.57;48.70;100985.25;5073229;28;20055;-75
2022/08/24 02:16:41;;;;;;;2.90;1.50;;;;;;;26.56;48.83;100972.69;5073715;28;20405;-75
2022/08/24 02:19:09;;;;;;;4.57;1.63;;;;;;;26.55;48.69;100979.16;5073800;28;20059;-75
2022/08/24 02:21:37;;;;;;;2.35;1.90;;;;;;;26.56;48.45;100985.44;5073490;28;20068;-75
2022/08/24 02:24:06;;;;;;;2.75;1.70;;;;;;;26.55;48.62;100983.75;5074747;28;20064;-74
2022/08/24 02:26:34;;;;;;;2.40;1.65;;;;;;;26.55;48.35;100978.31;5073882;28;20480;-75
2022/08/24 02:29:02;;;;;;;2.45;1.70;;;;;;;26.55;48.58;100984.59;5072855;28;20492;-75
2022/08/24 02:31:32;;;;;;;2.85;1.85;;;;;;;26.54;48.51;100988.34;5074381;28;20051;-75
2022/08/24 02:34:00;;;;;;;3.47;1.77;;;;;;;26.54;48.32;100992.91;5073734;28;20049;-75
2022/08/24 02:36:30;;;;;;;2.15;1.63;;;;;;;26.54;48.63;100992.91;5072916;28;20423;-74
2022/08/24 02:38:58;;;;;;;2.17;1.60;;;;;;;26.54;48.53;100988.34;5073126;28;20052;-74
2022/08/24 02:41:26;;;;;;;3.70;1.90;;;;;;;26.53;48.70;100996.63;5073702;28;20496;-74
2022/08/24 02:43:54;;;;;;;2.83;1.70;;;;;;;26.53;48.50;100991.22;5072894;28;20051;-74
2022/08/24 02:46:25;;;;;;;3.10;1.70;;;;;;;26.52;48.57;100987.66;5072318;28;20053;-75
2022/08/24 02:48:54;;;;;;;2.30;1.83;;;;;;;26.53;48.50;100989.34;5073189;28;20068;-75
2022/08/24 02:51:41;;;;;;;3.45;1.42;;;;;;;26.53;48.61;100988.50;5072563;28;20059;-75
2022/08/24 02:54:18;;;;;;;2.50;1.73;;;;;;;26.53;48.64;100989.34;5073654;28;20056;-74
2022/08/24 02:56:47;;;;;;;3.40;2.20;;;;;;;26.53;48.58;100983.91;5072466;28;20059;-75
2022/08/24 02:59:16;;;;;;;2.83;1.80;;;;;;;26.53;48.66;100981.19;5073196;28;20049;-74
2022/08/24 03:01:43;;;;;;;2.38;1.63;;;;;;;26.52;48.64;100990.38;5074008;28;20060;-74
2022/08/24 03:04:12;;;;;;;3.25;1.83;;;;;;;26.52;48.63;100990.38;5072831;28;20393;-75
2022/08/24 03:06:40;;;;;;;4.88;1.63;;;;;;;26.53;48.62;100997.47;5072667;28;20059;-74
2022/08/24 03:09:07;;;;;;;3.30;1.85;;;;;;;26.52;48.66;101001.22;5072508;28;20056;-74
2022/08/24 03:11:35;;;;;;;3.35;1.58;;;;;;;26.52;48.29;100990.38;5073273;28;20060;-74
2022/08/24 03:14:03;;;;;;;2.53;1.45;;;;;;;26.53;48.70;101002.06;5073611;28;20052;-74
2022/08/24 03:16:30;;;;;;;2.22;1.48;;;;;;;26.52;48.73;100990.38;5072025;28;20067;-75
2022/08/24 03:18:59;;;;;;;2.70;1.90;;;;;;;26.52;49.10;100993.06;5072167;28;20068;-74
2022/08/24 03:21:31;;;;;;;3.17;1.80;;;;;;;26.52;49.32;100984.94;5071756;28;20059;-75
2022/08/24 03:23:59;;;;;;;2.42;1.50;;;;;;;26.52;49.09;100995.78;5072872;28;20400;-74
2022/08/24 03:26:27;;;;;;;4.20;1.70;;;;;;;26.52;49.16;100994.94;5071864;28;20048;-74
2022/08/24 03:28:54;;;;;;;2.80;1.67;;;;;;;26.52;49.13;100986.81;5074103;28;20041;-74
2022/08/24 03:31:22;;;;;;;2.33;1.88;;;;;;;26.51;49.15;100988.69;5072355;28;20503;-74
2022/08/24 03:33:50;;;;;;;3.35;1.85;;;;;;;26.51;49.15;100988.69;5072692;28;20045;-74
2022/08/24 03:36:18;;;;;;;3.47;1.70;;;;;;;26.51;49.01;101002.25;5073495;28;20044;-74
2022/08/24 03:38:45;;;;;;;2.40;1.52;;;;;;;26.51;49.28;100998.69;5072185;28;20049;-74
2022/08/24 03:41:13;;;;;;;2.40;1.80;;;;;;;26.51;49.25;100993.28;5071768;28;20519;-74
2022/08/24 03:43:47;;;;;;;3.75;1.92;;;;;;;26.51;49.04;100999.53;5072200;28;20052;-74
2022/08/24 03:46:23;;;;;;;3.35;1.88;;;;;;;26.51;49.01;101004.97;5072690;28;20045;-74
2022/08/24 03:48:53;;;;;;;3.22;2.13;;;;;;;26.51;49.06;101001.41;5072163;28;20060;-74
2022/08/24 03:51:25;;;;;;;2.78;1.70;;;;;;;26.51;48.92;100987.84;5072397;28;20045;-74
2022/08/24 03:53:54;;;;;;;2.83;1.90;;;;;;;26.51;48.86;100994.09;5071751;28;20397;-74
2022/08/24 03:56:25;;;;;;;3.50;1.80;;;;;;;26.50;48.94;100997.84;5072065;28;20044;-74
2022/08/24 03:58:53;;;;;;;5.20;1.90;;;;;;;26.51;48.92;101007.69;5072343;28;20055;-75
2022/08/24 04:01:22;;;;;;;3.67;2.20;;;;;;;26.50;48.95;100992.44;5071640;28;20504;-74
2022/08/24 04:03:52;;;;;;;5.53;1.95;;;;;;;26.51;49.00;101004.13;5072909;28;20064;-74
2022/08/24 04:06:24;;;;;;;3.47;1.85;;;;;;;26.51;48.98;101004.13;5071533;28;20067;-74
2022/08/24 04:08:54;;;;;;;3.05;2.00;;;;;;;26.50;48.87;101006.00;5071536;28;20064;-74
2022/08/24 04:11:26;;;;;;;3.35;1.75;;;;;;;26.50;49.00;101006.00;5071495;28;20057;-73
2022/08/24 04:13:57;;;;;;;4.28;1.83;;;;;;;26.48;49.04;101005.31;5072308;28;20055;-75
2022/08/24 04:16:26;;;;;;;2.92;2.35;;;;;;;26.46;48.84;101007.38;5071696;28;20043;-75
2022/08/24 04:19:04;;;;;;;2.30;1.88;;;;;;;26.43;48.86;101006.84;5071960;28;20499;-75
2022/08/24 04:21:34;;;;;;;2.63;1.73;;;;;;;26.42;48.77;101003.28;5072005;28;20052;-74
2022/08/24 04:24:06;;;;;;;3.17;2.40;;;;;;;26.41;48.76;101009.72;5071230;28;20059;-75
2022/08/24 04:26:36;;;;;;;2.50;2.20;;;;;;;26.40;48.69;101013.44;5071850;28;20495;-74
2022/08/24 04:29:18;;;;;;;5.40;2.25;;;;;;;26.39;48.58;101012.59;5071797;28;20052;-75
2022/08/24 04:31:52;;;;;;;3.50;2.22;;;;;;;26.39;48.68;101011.75;5071692;28;20492;-75
2022/08/24 04:34:21;;;;;;;3.72;2.20;;;;;;;26.37;48.44;101008.38;5071862;28;20049;-75
2022/08/24 04:36:49;;;;;;;2.15;1.70;;;;;;;26.37;48.34;101013.78;5071552;28;20055;-75
2022/08/24 04:39:17;;;;;;;3.00;1.98;;;;;;;26.36;48.48;101010.22;5071463;28;20048;-75
2022/08/24 04:42:07;;;;;;;4.32;2.10;;;;;;;26.34;48.50;101012.28;5071390;28;20060;-75
2022/08/24 04:44:38;;;;;;;4.50;2.05;;;;;;;26.36;48.46;101025.69;5072066;28;20053;-75
2022/08/24 04:47:07;;;;;;;3.47;2.10;;;;;;;26.36;48.59;101022.97;5071779;28;20041;-75
2022/08/24 04:49:37;;;;;;;5.18;2.58;;;;;;;26.35;48.46;101026.72;5072318;28;20041;-75
2022/08/24 04:52:06;;;;;;;4.38;2.60;;;;;;;26.34;48.36;101025.03;5072046;28;20507;-75
2022/08/24 04:54:34;;;;;;;3.90;1.80;;;;;;;26.34;48.38;101027.72;5070749;28;20412;-75
2022/08/24 04:57:07;;;;;;;3.00;2.10;;;;;;;26.33;48.17;101023.31;5071187;28;20049;-74
2022/08/24 04:59:35;;;;;;;2.97;2.22;;;;;;;26.33;48.39;101023.31;5071893;28;20503;-75
2022/08/24 05:02:03;;;;;;;2.70;2.08;;;;;;;26.33;48.49;101021.47;5072374;28;20044;-74
2022/08/24 05:04:30;;;;;;;3.05;2.03;;;;;;;26.34;48.54;101027.72;5070920;28;20060;-74
2022/08/24 05:06:58;;;;;;;4.47;2.08;;;;;;;26.34;48.53;101035.88;5071154;28;20053;-74
2022/08/24 05:09:26;;;;;;;4.07;2.38;;;;;;;26.33;48.61;101034.16;5073542;28;20044;-75
2022/08/24 05:11:56;;;;;;;3.20;2.60;;;;;;;26.32;48.22;101038.75;5075195;28;20527;-75
2022/08/24 05:14:27;;;;;;;3.70;2.40;;;;;;;26.30;48.28;101037.25;5075371;28;20055;-75
2022/08/24 05:16:55;;;;;;;3.00;2.50;;;;;;;26.28;48.20;101037.41;5075167;28;20044;-75
2022/08/24 05:19:23;;;;;;;5.22;2.33;;;;;;;26.28;48.35;101041.97;5075181;28;20059;-74
2022/08/24 05:21:51;;;;;;;3.00;2.40;;;;;;;26.26;48.20;101046.75;5074707;28;20048;-74
2022/08/24 05:24:19;;;;;;;2.60;2.00;;;;;;;26.25;47.99;101043.19;5074312;28;20063;-74
2022/08/24 05:26:46;;;;;;;4.18;2.08;;;;;;;26.24;48.15;101046.06;5074723;28;20063;-74
2022/08/24 05:29:16;;;;;;;3.33;2.67;;;;;;;26.22;48.11;101050.81;5074496;28;20464;-74
2022/08/24 05:31:47;;;;;;;3.05;2.30;;;;;;;26.21;48.27;101057.25;5074633;28;20059;-74
2022/08/24 05:34:16;;;;;;;2.80;2.00;;;;;;;26.19;48.01;101062.03;5075032;28;20049;-74
2022/08/24 05:36:45;;;;;;;3.80;2.28;;;;;;;26.18;48.02;101055.75;5074187;28;20040;-74
2022/08/24 05:39:27;;;;;;;3.88;2.17;;;;;;;26.18;47.94;101063.03;5074268;28;20056;-74
2022/08/24 05:41:58;;;;;;;3.20;2.13;;;;;;;26.18;47.84;101057.63;5074024;28;20059;-74
2022/08/24 05:44:32;;;;;;;2.78;1.95;;;;;;;26.16;47.91;101055.06;5074193;28;20370;-74
2022/08/24 05:47:02;;;;;;;4.03;2.20;;;;;;;26.18;47.93;101052.19;5074479;28;20052;-74
2022/08/24 05:49:30;;;;;;;4.47;2.42;;;;;;;26.18;47.96;101058.47;5074229;28;20057;-74
2022/08/24 05:51:58;;;;;;;3.05;2.33;;;;;;;26.19;47.93;101048.44;5074128;28;20056;-74
2022/08/24 05:54:26;;;;;;;3.38;2.40;;;;;;;26.20;47.94;101055.56;5074447;28;20523;-74
2022/08/24 05:57:03;;;;;;;2.78;2.13;;;;;;;26.22;48.06;101050.81;5073750;28;20049;-74
2022/08/24 05:59:40;;;;;;;3.78;2.47;;;;;;;26.23;48.01;101049.81;5074583;28;20060;-74
2022/08/24 06:02:14;;;;;;;3.35;2.30;;;;;;;26.23;48.02;101056.06;5073916;28;20067;-74
2022/08/24 06:04:43;;;;;;;4.35;2.28;;;;;;;26.23;48.12;101057.94;5073490;28;20064;-74
2022/08/24 06:07:12;;;;;;;3.95;2.55;;;;;;;26.22;48.13;101058.97;5074332;28;20484;-74
2022/08/24 06:09:43;;;;;;;3.70;2.83;;;;;;;26.22;48.02;101059.81;5074066;28;20408;-74
2022/08/24 06:12:13;;;;;;;5.95;2.70;;;;;;;26.22;47.99;101062.53;5073438;28;20052;-74
2022/08/24 06:14:44;;;;;;;3.25;2.50;;;;;;;26.22;48.03;101061.69;5073621;28;20526;-74
2022/08/24 06:17:12;;;;;;;3.75;2.30;;;;;;;26.21;48.18;101062.69;5074000;28;20056;-74
2022/08/24 06:19:41;;;;;;;3.35;2.35;;;;;;;26.22;48.06;101065.25;5073377;28;20057;-75
2022/08/24 06:22:08;;;;;;;4.20;2.35;;;;;;;26.22;48.16;101065.25;5074015;28;20059;-74
2022/08/24 06:27:27;;;;;;;3.50;2.10;;;;;;;26.24;48.19;101062.34;5073809;28;20044;-74
2022/08/24 06:30:03;;;;;;;3.58;2.30;;;;;;;26.24;48.10;101067.78;5073233;28;20044;-74
2022/08/24 06:32:50;;;;;;;3.58;2.28;;;;;;;26.23;48.17;101075.06;5066279;28;20052;-74
2022/08/24 06:35:27;;;;;;;4.47;3.17;;;;;;;26.24;48.22;101070.47;5051924;28;20064;-74
2022/08/24 06:37:56;;;;;;;3.15;2.47;;;;;;;26.23;48.29;101075.06;5052017;28;20052;-74
2022/08/24 06:40:24;;;;;;;6.50;2.72;;;;;;;26.24;48.34;101070.47;5052288;28;20053;-73
2022/08/24 06:42:53;;;;;;;4.47;2.67;;;;;;;26.22;47.96;101075.25;5051179;28;20052;-74
2022/08/24 06:45:31;;;;;;;5.45;3.60;;;;;;;26.19;48.18;101076.44;5051551;28;20435;-74
2022/08/24 06:47:59;;;;;;;3.70;3.03;;;;;;;26.17;48.63;101077.59;5050509;28;20196;-73
2022/08/24 06:50:28;;;;;;;5.70;3.00;;;;;;;26.14;48.21;101074.22;5068051;28;20127;-74
2022/08/24 06:52:56;;;;;;;3.15;2.75;;;;;;;26.09;48.73;101076.63;5035213;28;20049;-74
2022/08/24 06:55:25;;;;;;;4.07;3.40;;;;;;;26.06;49.26;101071.53;5034939;28;20057;-74
2022/08/24 06:57:53;;;;;;;4.68;3.20;;;;;;;26.02;50.14;101075.59;5051909;28;20044;-74
2022/08/24 07:00:21;;;;;;;5.32;3.28;;;;;;;25.99;50.36;101080.50;5050457;28;20432;-74
2022/08/24 07:02:49;;;;;;;6.25;3.03;;;;;;;25.95;50.41;101080.00;5033857;28;20469;-73
2022/08/24 07:05:17;;;;;;;4.60;2.90;;;;;;;25.92;50.46;101072.19;5034377;28;20053;-74
2022/08/24 07:08:06;;;;;;;4.90;3.00;;;;;;;25.88;50.27;101081.69;4992336;28;20051;-76
2022/08/24 07:10:34;;;;;;;4.38;2.80;;;;;;;25.84;49.59;101080.34;4975878;28;20069;-76
2022/08/24 07:13:02;;;;;;;4.55;2.50;;;;;;;25.81;49.21;101077.97;4991782;28;20058;-73
2022/08/24 07:15:30;;;;;;;4.03;2.63;;;;;;;25.79;49.28;101080.84;4992405;28;20054;-74
2022/08/24 07:18:12;;;;;;;4.93;2.22;;;;;;;25.78;49.15;101078.31;4992162;28;20054;-74
2022/08/24 07:20:43;;;;;;;3.38;1.70;;;;;;;25.76;48.90;101081.13;4976313;28;20050;-75
2022/08/24 07:23:35;;;;;;;2.55;2.15;;;;;;;25.73;48.60;101078.78;4991865;28;20065;-73
2022/08/24 07:26:13;;;;;;;4.43;2.08;;;;;;;25.73;48.54;101083.38;4975692;28;20076;-76
2022/08/24 07:28:53;;;;;;;3.67;2.03;;;;;;;25.73;48.07;101088.78;4991929;28;20518;-75
2022/08/24 07:31:25;;;;;;;2.40;1.60;;;;;;;25.74;48.21;101085.06;4975544;28;20061;-75
2022/08/24 07:34:02;;;;;;;3.17;1.75;;;;;;;25.77;48.41;101087.44;4975566;28;20054;-75
2022/08/24 07:36:30;;;;;;;3.03;1.75;;;;;;;25.79;48.67;101082.72;4975839;28;20058;-74
2022/08/24 07:38:59;;;;;;;2.03;1.50;;;;;;;25.81;48.77;101086.13;4976265;28;20058;-74
2022/08/24 07:41:28;;;;;;;3.97;1.85;;;;;;;25.83;48.85;101089.50;4992429;28;20054;-74
2022/08/24 07:44:17;;;;;;;5.60;1.73;;;;;;;25.85;49.00;101092.91;4995378;28;20197;-74
2022/08/24 07:46:45;;;;;;;3.42;2.22;;;;;;;25.86;49.29;101091.88;5052176;28;20056;-73
2022/08/24 07:49:14;;;;;;;3.10;1.80;;;;;;;25.87;49.52;101090.84;5052696;28;20053;-74
2022/08/24 07:52:03;;;;;;;4.90;1.70;;;;;;;25.89;49.34;101088.84;5052201;28;20056;-75
2022/08/24 07:54:30;;;;;;;4.95;2.00;;;;;;;25.92;49.41;101093.91;5052076;28;20067;-75
2022/08/24 07:57:01;;;;;;;4.10;1.70;;;;;;;25.97;49.31;101093.38;5036311;28;20053;-73
2022/08/24 07:59:28;;;;;;;2.20;1.60;;;;;;;25.97;49.71;101093.38;5052038;28;20053;-75
2022/08/24 08:01:57;;;;;;;4.80;2.00;;;;;;;26.00;49.62;101084.91;5052479;28;20056;-75
2022/08/24 08:04:25;;;;;;;3.20;1.85;;;;;;;26.00;49.94;101087.63;5036172;28;20052;-74
2022/08/24 08:06:55;;;;;;;2.30;1.98;;;;;;;26.02;49.67;101091.03;5052294;28;20053;-74
2022/08/24 08:09:29;;;;;;;4.28;2.30;;;;;;;26.03;49.95;101087.28;5051611;28;20060;-72
2022/08/24 08:11:57;;;;;;;3.40;2.33;;;;;;;26.05;49.84;101091.53;5052224;28;20049;-74
2022/08/24 08:14:43;;;;;;;3.03;2.10;;;;;;;26.07;49.95;101089.50;5055048;28;20143;-72
2022/08/24 08:17:12;;;;;;;5.40;2.20;;;;;;;26.11;50.03;101087.28;5070512;28;20059;-74
2022/08/24 08:19:41;;;;;;;2.63;1.85;;;;;;;26.13;50.17;101096.13;5073347;28;20040;-74
2022/08/24 08:25:13;;;;;;;3.53;1.90;;;;;;;26.16;50.29;101094.91;5079555;28;20063;-74
2022/08/24 08:27:41;;;;;;;2.20;1.50;;;;;;;26.17;50.40;101102.91;5071303;28;20044;-75
2022/08/24 08:30:14;;;;;;;2.60;1.63;;;;;;;26.19;50.26;101098.13;5072078;28;20048;-74
2022/08/24 08:32:42;;;;;;;3.72;1.55;;;;;;;26.21;50.37;101101.53;5055798;28;20048;-75
2022/08/24 08:35:10;;;;;;;3.28;1.83;;;;;;;26.21;50.41;101098.84;5071811;28;20059;-75
2022/08/24 08:37:38;;;;;;;2.92;1.40;;;;;;;26.21;50.15;101100.66;5071633;28;20055;-75
2022/08/24 08:40:11;;;;;;;2.88;1.75;;;;;;;26.25;50.41;101102.91;5073136;28;20062;-75
2022/08/24 08:43:31;;;;;;;3.63;1.90;;;;;;;26.26;50.55;101091.03;5073342;28;20044;-75
2022/08/24 08:46:17;;;;;;;3.55;1.63;;;;;;;26.27;50.47;101089.16;5033628;28;20544;-75
2022/08/24 08:49:21;;;;;;;3.05;1.40;;;;;;;26.29;50.64;101092.53;5017829;28;20049;-74
2022/08/24 08:52:07;;;;;;;2.50;1.50;;;;;;;26.29;50.64;101089.81;5034395;28;20053;-72
2022/08/24 08:54:53;;;;;;;2.42;1.50;;;;;;;26.29;50.72;101095.22;5017781;28;20053;-75
2022/08/24 08:57:46;;;;;;;2.00;1.67;;;;;;;26.42;50.74;101084.72;5017868;28;20489;-75
2022/08/24 09:00:22;;;;;;;3.15;1.83;;;;;;;26.51;50.40;101085.56;5034100;28;20109;-75
2022/08/24 09:03:28;;;;;;;2.58;1.60;;;;;;;26.69;50.09;101085.34;5017210;28;20060;-76
2022/08/24 09:06:33;;;;;;;2.35;1.40;;;;;;;26.70;50.16;101092.47;5027124;28;20044;-76
2022/08/24 09:09:22;;;;;;;1.90;1.48;;;;;;;26.69;50.02;101090.78;5017774;28;20041;-74
2022/08/24 09:11:58;;;;;;;2.80;1.67;;;;;;;26.67;49.81;101090.13;5018385;28;20058;-74
2022/08/24 09:14:51;;;;;;;2.75;1.67;;;;;;;26.68;49.83;101094.53;5017603;28;20148;-74
2022/08/24 09:17:34;;;;;;;2.13;1.60;;;;;;;26.65;49.39;101084.84;5018093;28;20053;-73
2022/08/24 09:20:18;;;;;;;3.30;1.65;;;;;;;26.63;49.67;101089.63;5017607;28;20061;-75
2022/08/24 09:22:47;;;;;;;2.67;1.38;;;;;;;26.62;49.69;101088.78;5074892;28;20415;-76
2022/08/24 09:25:31;;;;;;;2.13;1.42;;;;;;;26.61;49.71;101084.34;5074096;28;20130;-75
2022/08/24 09:28:14;;;;;;;4.50;1.70;;;;;;;26.61;50.05;101076.19;5074565;28;20492;-73
2022/08/24 09:31:15;;;;;;;3.05;1.63;;;;;;;26.59;49.69;101070.09;5075812;28;20052;-74
2022/08/24 09:34:10;;;;;;;2.22;1.45;;;;;;;26.61;49.79;101075.34;5075678;28;20045;-74
2022/08/24 09:36:52;;;;;;;1.75;1.30;;;;;;;26.60;49.95;101069.06;5053904;28;20068;-74
2022/08/24 09:39:47;;;;;;;2.95;1.50;;;;;;;26.61;49.95;101068.06;5036222;28;20056;-73
2022/08/24 09:42:42;;;;;;;2.67;1.73;;;;;;;26.61;49.92;101068.06;5053262;28;20100;-73
2022/08/24 09:45:24;;;;;;;2.30;1.60;;;;;;;26.62;49.94;101072.47;5053123;28;20056;-74
2022/08/24 09:48:03;;;;;;;2.83;1.58;;;;;;;26.62;49.56;101069.78;5053335;28;20467;-75
2022/08/24 09:51:08;;;;;;;4.07;1.55;;;;;;;26.60;48.94;101063.66;5053674;28;20075;-74
2022/08/24 09:54:17;;;;;;;2.80;1.60;;;;;;;26.62;48.97;101067.06;5053223;28;20072;-74
2022/08/24 09:56:54;;;;;;;3.40;1.70;;;;;;;26.94;47.13;101065.25;5043159;28;20099;-75
2022/08/24 09:59:49;;;;;;;3.72;1.50;;;;;;;27.06;47.84;101060.25;5053429;28;20052;-75
2022/08/24 10:02:30;;;;;;;2.78;1.80;;;;;;;27.05;47.72;101067.53;5036729;28;20191;-75
2022/08/24 10:05:28;;;;;;;2.17;1.40;;;;;;;27.03;47.94;101056.03;5052709;28;20053;-75
2022/08/24 10:08:26;;;;;;;4.00;1.67;;;;;;;27.01;48.00;101054.50;5052877;28;20057;-75
2022/08/24 10:11:26;;;;;;;2.92;1.70;;;;;;;26.96;48.34;101055.03;5053202;28;20603;-75
2022/08/24 10:14:12;;;;;;;3.42;1.63;;;;;;;26.91;47.82;101049.28;5064098;28;20064;-75
2022/08/24 10:16:55;;;;;;;3.20;2.05;;;;;;;26.86;47.47;101046.25;5074375;28;20045;-75
2022/08/24 10:19:52;;;;;;;3.60;1.60;;;;;;;26.83;47.70;101039.31;5073169;28;20045;-73
2022/08/24 10:23:09;;;;;;;2.10;1.70;;;;;;;26.83;47.43;101042.03;5073871;28;20401;-77
2022/08/24 10:26:02;;;;;;;2.17;1.40;;;;;;;26.85;47.92;101042.66;5074830;28;20048;-74
2022/08/24 10:28:57;;;;;;;2.55;1.60;;;;;;;26.85;47.63;101028.25;5073679;28;20041;-76
2022/08/24 10:31:39;;;;;;;2.50;1.70;;;;;;;26.87;47.63;101028.94;5075111;28;20048;-76
2022/08/24 10:34:30;;;;;;;2.58;1.70;;;;;;;27.19;46.71;101030.66;5074505;28;20048;-76
2022/08/24 10:37:16;;;;;;;4.03;1.88;;;;;;;27.37;45.99;101019.50;5074238;28;20044;-75
2022/08/24 10:40:11;;;;;;;2.00;1.58;;;;;;;27.50;45.76;101027.88;5074693;28;20075;-75
2022/08/24 10:43:32;;;;;;;2.17;1.30;;;;;;;27.51;46.35;101018.72;5074311;28;20526;-76
2022/08/24 10:46:21;;;;;;;2.45;1.42;;;;;;;27.52;46.52;101020.41;5074564;28;20044;-73
2022/08/24 10:49:18;;;;;;;4.20;1.63;;;;;;;27.49;46.42;101022.63;5073332;28;20103;-76
2022/08/24 10:52:11;;;;;;;4.72;1.40;;;;;;;27.45;46.45;101018.59;5072355;28;20057;-75
2022/08/24 10:54:39;;;;;;;2.37;1.73;;;;;;;27.37;47.55;101024.94;5073441;28;20047;-74
2022/08/24 10:57:29;;;;;;;2.00;1.40;;;;;;;27.32;47.66;101017.31;5072088;28;20502;-75
2022/08/24 11:00:05;;;;;;;2.85;1.70;;;;;;;27.27;47.34;101014.31;5072070;28;20105;-74
2022/08/24 11:02:35;;;;;;;2.30;1.80;;;;;;;27.22;47.33;101010.41;5071987;28;20063;-75
2022/08/24 11:05:11;;;;;;;4.57;1.92;;;;;;;27.26;47.64;101011.75;5054949;28;20158;-74
2022/08/24 11:08:19;;;;;;;4.88;1.75;;;;;;;27.47;46.76;101009.25;5071586;28;20063;-74
2022/08/24 11:11:03;;;;;;;2.13;1.75;;;;;;;27.54;46.48;101007.47;5052361;28;20516;-74
2022/08/24 11:13:33;;;;;;;2.72;1.65;;;;;;;27.64;45.82;101011.84;5071554;28;20531;-75
2022/08/24 11:16:02;;;;;;;2.92;1.70;;;;;;;27.61;47.26;101013.03;5071697;28;20048;-75
2022/08/24 11:18:51;;;;;;;2.45;1.35;;;;;;;27.57;47.74;101011.69;5071591;28;20067;-75
2022/08/24 11:21:39;;;;;;;3.45;1.60;;;;;;;27.48;47.28;101012.78;5072091;28;20071;-73
2022/08/24 11:24:44;;;;;;;3.67;1.40;;;;;;;27.40;47.91;101010.13;5054367;28;20056;-73
2022/08/24 11:27:15;;;;;;;3.65;1.70;;;;;;;27.35;47.84;101003.38;5061546;28;20052;-74
2022/08/24 11:29:51;;;;;;;3.53;1.48;;;;;;;27.30;48.94;101000.31;5051042;28;20092;-74
2022/08/24 11:32:43;;;;;;;2.53;1.80;;;;;;;27.27;48.11;101002.59;5051161;28;20496;-74
2022/08/24 11:35:17;;;;;;;3.75;1.50;;;;;;;27.23;48.94;100998.53;5051853;28;20049;-75
2022/08/24 11:37:45;;;;;;;3.50;2.13;;;;;;;27.22;49.16;100994.09;5053970;28;20109;-74
2022/08/24 11:40:15;;;;;;;3.97;1.77;;;;;;;27.21;49.24;101003.28;5053890;28;20041;-73
2022/08/24 11:42:52;;;;;;;4.90;1.35;;;;;;;27.21;48.92;101003.28;5053896;28;20144;-72
2022/08/24 11:45:31;;;;;;;2.20;1.35;;;;;;;27.21;49.43;100993.25;5053728;28;20048;-73
2022/08/24 11:48:17;;;;;;;2.67;1.52;;;;;;;27.21;49.45;101001.41;5051856;28;20060;-72
2022/08/24 11:51:29;;;;;;;2.78;1.30;;;;;;;27.20;50.13;101001.59;5053491;28;20044;-72
2022/08/24 11:54:03;;;;;;;3.05;1.42;;;;;;;27.18;49.88;100999.06;5033679;28;20049;-73
2022/08/24 11:56:37;;;;;;;2.42;1.42;;;;;;;27.17;50.10;100999.25;5033906;28;20053;-74
2022/08/24 11:59:21;;;;;;;2.50;1.55;;;;;;;27.16;49.38;101003.00;5051049;28;20060;-73
2022/08/24 12:01:52;;;;;;;2.67;1.60;;;;;;;27.15;48.85;101002.16;5033423;28;20049;-75
2022/08/24 12:04:45;;;;;;;3.00;1.70;;;;;;;27.15;48.72;100988.56;5034209;28;20457;-75
2022/08/24 12:07:12;;;;;;;6.32;1.75;;;;;;;27.15;49.31;100990.44;5051587;28;20057;-75
2022/08/24 12:10:00;;;;;;;3.47;1.60;;;;;;;27.14;49.44;100999.59;5034441;28;20045;-75